Time;durP1;ratioP1;P1;durP2;ratioP2;P2;SDS_P1;SDS_P2;PMS_P1;PMS_P2;Temp;Humidity;BMP_temperature;BMP_pressure;BME280_temperature;BME280_humidity;BME280_pressure;Samples;Min_cycle;Max_cycle;Signal;HPM_P1;HPM_P2
2021/03/10 00:11:56;;;;;;;43.35;17.05;;;;;;;0.10;67.92;100940.14;10519516;83;21159;-92
2021/03/10 00:27:00;;;;;;;41.75;14.35;;;;;;;0.17;68.70;100940.77;10514686;83;21215;-94
2021/03/10 00:42:06;;;;;;;61.48;20.40;;;;;;;0.20;69.64;100931.66;10455369;84;21285;-91
2021/03/10 00:57:10;;;;;;;37.17;14.87;;;;;;;0.13;70.00;100930.16;10450443;84;21231;-91
2021/03/10 01:12:14;;;;;;;50.50;18.52;;;;;;;0.07;70.59;100922.19;10452005;85;21136;-93
2021/03/10 01:27:19;;;;;;;314.38;66.17;;;;;;;0.07;71.17;100909.29;10461296;85;21112;-93
2021/03/10 01:42:23;;;;;;;84.47;27.00;;;;;;;-0.02;71.49;100898.00;10453698;84;21186;-92
2021/03/10 01:57:28;;;;;;;40.45;17.23;;;;;;;0.01;72.36;100888.85;10453973;84;21238;-91
2021/03/10 02:12:40;;;;;;;35.00;13.95;;;;;;;-0.02;74.01;100882.52;10474702;82;21167;-92
2021/03/10 02:27:47;;;;;;;32.58;13.10;;;;;;;-0.15;74.88;100864.48;10476111;84;21131;-93
2021/03/10 02:42:53;;;;;;;36.75;14.83;;;;;;;-0.29;75.36;100861.94;10125327;87;21144;-94
2021/03/10 02:57:58;;;;;;;69.90;19.37;;;;;;;-0.29;76.11;100871.39;10367092;84;21550;-93
2021/03/10 03:13:07;;;;;;;25.32;9.98;;;;;;;-0.39;76.33;100868.29;10464071;84;21191;-93
2021/03/10 03:28:17;;;;;;;22.85;10.25;;;;;;;-0.48;76.94;100865.55;10463744;84;21253;-94
2021/03/10 03:43:25;;;;;;;26.95;10.65;;;;;;;-0.60;78.55;100861.64;10422764;84;21242;-92
2021/03/10 03:58:29;;;;;;;30.82;13.45;;;;;;;-0.72;78.71;100856.89;10412730;84;21662;-88
2021/03/10 04:13:34;;;;;;;27.20;11.40;;;;;;;-0.91;79.80;100862.62;10395934;84;21106;-93
2021/03/10 04:28:38;;;;;;;27.15;13.50;;;;;;;-0.95;79.79;100864.91;10400638;84;21560;-87
2021/03/10 04:43:42;;;;;;;52.62;21.12;;;;;;;-1.02;79.99;100864.25;10416723;84;21211;-85
2021/03/10 04:58:47;;;;;;;49.60;18.82;;;;;;;-1.10;80.97;100865.36;10474623;83;21246;-87
2021/03/10 05:13:52;;;;;;;82.45;29.48;;;;;;;-1.18;82.18;100855.28;10498662;84;21666;-89
2021/03/10 05:28:56;;;;;;;95.77;33.65;;;;;;;-1.29;81.57;100871.06;10469184;84;21274;-86
2021/03/10 05:44:02;;;;;;;93.70;35.60;;;;;;;-1.35;82.06;100877.24;10388059;84;21315;-85
2021/03/10 05:59:07;;;;;;;59.40;21.33;;;;;;;-1.32;82.97;100885.75;10374049;84;21632;-85
2021/03/10 06:14:17;;;;;;;194.85;74.55;;;;;;;-1.20;83.34;100886.23;10387644;84;21227;-86
2021/03/10 06:29:22;;;;;;;167.82;57.00;;;;;;;-0.86;83.61;100892.95;10428500;84;21176;-84
2021/03/10 06:44:29;;;;;;;323.05;106.22;;;;;;;-0.53;83.61;100903.09;10383343;85;21242;-86
2021/03/10 06:59:44;;;;;;;78.67;29.50;;;;;;;0.19;82.92;100912.36;10366514;85;21333;-86
2021/03/10 07:14:50;;;;;;;50.78;23.65;;;;;;;0.81;81.01;100920.85;10352100;85;21349;-86
2021/03/10 07:29:59;;;;;;;32.70;14.95;;;;;;;2.64;69.38;100948.44;10364200;85;21114;-85
2021/03/10 07:45:07;;;;;;;87.95;38.75;;;;;;;2.64;69.38;100948.44;10221968;85;21153;-81
2021/03/10 08:00:14;;;;;;;47.67;26.57;;;;;;;3.77;68.04;100945.32;10236455;85;21182;-82
2021/03/10 08:15:22;;;;;;;34.13;15.00;;;;;;;4.38;64.71;100940.58;10271918;85;21168;-82
2021/03/10 08:30:25;;;;;;;;;;;;;;;4.14;60.17;100940.92;10300988;85;21586;-80
2021/03/10 08:45:33;;;;;;;19.50;10.05;;;;;;;4.99;56.86;100961.66;10299419;85;20204;-79
2021/03/10 09:00:39;;;;;;;58.43;24.03;;;;;;;5.71;57.84;100972.43;10309089;85;21286;-79
2021/03/10 09:15:44;;;;;;;120.15;45.08;;;;;;;6.27;52.41;100945.84;9812975;88;21130;-81
2021/03/10 10:20:02;;;;;;;31.95;17.00;;;;;;;7.58;48.68;100937.70;9205872;92;21268;-80
2021/03/10 10:35:09;;;;;;;55.65;23.67;;;;;;;7.85;43.16;100933.39;9813616;88;21169;-82
2021/03/10 10:50:16;;;;;;;15.87;8.83;;;;;;;9.25;45.67;100960.87;10294122;85;21217;-80
2021/03/10 11:05:21;;;;;;;39.85;20.55;;;;;;;8.38;40.93;100961.63;10135797;86;21180;-85
2021/03/10 11:20:26;;;;;;;26.60;15.08;;;;;;;9.32;41.64;100961.63;10347583;83;21802;-84
2021/03/10 11:35:30;;;;;;;21.12;11.35;;;;;;;9.31;38.69;100961.74;10401829;83;21144;-83
2021/03/10 11:50:36;;;;;;;54.13;25.43;;;;;;;9.12;40.94;100947.36;10464774;83;21123;-82
2021/03/10 12:05:41;;;;;;;340.65;160.10;;;;;;;8.23;42.22;100937.83;10476421;83;21289;-80
2021/03/10 12:20:47;;;;;;;28.92;11.95;;;;;;;8.38;41.40;100928.94;10471832;83;21275;-84
2021/03/10 12:35:52;;;;;;;67.60;33.48;;;;;;;7.15;41.71;100925.66;10436493;82;21627;-84
2021/03/10 12:50:56;;;;;;;281.20;105.00;;;;;;;6.92;43.30;100919.27;10423588;85;21290;-82
2021/03/10 13:06:01;;;;;;;346.05;120.62;;;;;;;6.87;43.74;100918.71;10400290;83;21156;-82
2021/03/10 13:21:06;;;;;;;64.07;30.52;;;;;;;6.64;44.80;100907.94;10449751;83;21123;-82
2021/03/10 13:36:11;;;;;;;67.45;35.80;;;;;;;6.21;44.18;100914.93;10499647;83;21136;-82
2021/03/10 13:51:17;;;;;;;90.85;41.28;;;;;;;6.18;45.41;100902.06;10468957;83;21231;-81
2021/03/10 14:06:21;;;;;;;154.85;51.35;;;;;;;6.32;45.43;100898.16;10400181;83;21305;-81
2021/03/10 14:21:26;;;;;;;138.05;56.50;;;;;;;6.31;45.89;100899.13;10388896;84;21259;-82
2021/03/10 14:36:32;;;;;;;178.15;67.92;;;;;;;8.81;43.65;100893.26;10394717;83;21254;-82
2021/03/10 14:51:37;;;;;;;484.52;116.15;;;;;;;8.06;44.10;100883.59;10444479;83;21040;-82
2021/03/10 15:06:41;;;;;;;341.88;105.97;;;;;;;7.33;45.34;100877.95;10397232;83;21060;-80
2021/03/10 15:21:47;;;;;;;74.20;34.25;;;;;;;6.45;46.66;100870.45;10452433;83;21099;-80
2021/03/10 15:36:52;;;;;;;54.75;26.62;;;;;;;13.02;44.10;100865.17;10435722;82;21530;-81
2021/03/10 15:51:56;;;;;;;416.65;141.53;;;;;;;9.21;43.95;100849.47;10389061;84;21108;-80
2021/03/10 16:07:00;;;;;;;122.07;56.60;;;;;;;7.31;46.24;100835.91;10350096;86;21112;-79
2021/03/10 16:22:05;;;;;;;786.28;309.30;;;;;;;6.95;48.07;100832.16;10303878;86;21056;-80
2021/03/10 16:37:09;;;;;;;511.82;177.82;;;;;;;5.15;50.50;100834.21;10350615;82;21053;-81
2021/03/10 16:52:13;;;;;;;499.73;182.82;;;;;;;3.90;51.95;100844.80;10369786;83;21115;-80
2021/03/10 17:07:18;;;;;;;429.75;153.20;;;;;;;3.00;54.79;100862.95;10351177;83;21084;-81
2021/03/10 17:22:24;;;;;;;394.43;140.70;;;;;;;2.49;56.22;100884.73;10473131;83;21063;-78
2021/03/10 17:37:28;;;;;;;431.23;138.77;;;;;;;2.16;56.74;100894.81;10451395;83;21076;-78
2021/03/10 17:52:33;;;;;;;520.75;175.00;;;;;;;1.79;58.36;100906.26;10391377;84;21076;-79
2021/03/10 18:07:40;;;;;;;507.45;170.25;;;;;;;1.35;61.07;100912.80;10185318;86;21108;-80
2021/03/10 18:22:45;;;;;;;646.48;248.07;;;;;;;0.76;64.51;100900.80;9328452;93;21180;-78
2021/03/10 18:37:51;;;;;;;669.65;321.13;;;;;;;0.78;67.01;100892.56;10053620;84;21081;-79
2021/03/10 18:52:57;;;;;;;352.00;111.87;;;;;;;0.78;67.01;100892.56;10281233;84;21041;-79
2021/03/10 19:08:02;;;;;;;243.42;82.27;;;;;;;0.74;67.05;100897.88;10291899;86;21155;-78
2021/03/10 19:23:09;;;;;;;157.50;54.18;;;;;;;0.40;69.37;100888.81;10299574;86;21069;-79
2021/03/10 19:38:14;;;;;;;117.28;50.67;;;;;;;0.40;69.37;100888.81;10393368;83;21054;-79
2021/03/10 19:53:19;;;;;;;186.80;67.20;;;;;;;0.30;70.60;100897.32;10523892;82;21052;-79
2021/03/10 20:08:24;;;;;;;1055.15;392.55;;;;;;;0.18;70.51;100895.19;10511188;82;21085;-79
2021/03/10 20:23:29;;;;;;;333.20;127.58;;;;;;;0.19;70.85;100909.31;10483749;82;21649;-79
2021/03/10 20:38:33;;;;;;;185.35;66.80;;;;;;;0.03;71.57;100909.00;10469831;82;21107;-78
2021/03/10 20:53:40;;;;;;;346.35;116.40;;;;;;;-0.11;71.96;100897.02;10360517;83;21064;-80
2021/03/10 21:08:45;;;;;;;113.50;39.43;;;;;;;-0.20;72.78;100889.99;10407017;83;22169;-77
2021/03/10 21:23:50;;;;;;;67.25;31.50;;;;;;;-0.33;73.78;100874.54;10430283;83;21111;-78
2021/03/10 21:38:54;;;;;;;81.57;37.25;;;;;;;-0.43;75.31;100852.53;10099075;87;21156;-78
2021/03/10 21:53:59;;;;;;;79.25;32.25;;;;;;;-0.60;77.63;100830.71;10216203;85;21049;-77
2021/03/10 22:09:05;;;;;;;98.22;41.10;;;;;;;-0.74;79.27;100805.84;10389804;83;21680;-77
2021/03/10 22:24:10;;;;;;;;;;;;;;;-0.81;80.01;100786.33;10463825;83;21111;-78
2021/03/10 22:39:14;;;;;;;136.12;46.92;;;;;;;-0.94;81.34;100780.27;10360580;84;20191;-78
2021/03/10 22:54:20;;;;;;;107.43;43.50;;;;;;;-0.97;81.68;100779.09;10474411;83;21103;-80
2021/03/10 23:09:24;;;;;;;112.10;41.75;;;;;;;-1.10;82.05;100786.36;10477558;83;21094;-79
2021/03/10 23:24:28;;;;;;;71.12;32.78;;;;;;;-1.07;80.21;100753.23;10476634;83;21146;-80
2021/03/10 23:39:33;;;;;;;63.30;29.18;;;;;;;-1.22;81.32;100694.89;10450957;82;21151;-79
2021/03/10 23:54:37;;;;;;;57.23;25.70;;;;;;;-1.33;83.11;100686.69;10405193;86;21101;-78
